sensor_id;sensor_type;location;lat;lon;timestamp;temperature;humidity
2913;DHT22;1466;48.778;9.166;2023-02-20T00:00:09;11.40;99.90
2913;DHT22;1466;48.778;9.166;2023-02-20T00:02:40;11.40;99.90
2913;DHT22;1466;48.778;9.166;2023-02-20T00:05:06;11.40;99.90
2913;DHT22;1466;48.778;9.166;2023-02-20T00:07:32;11.40;99.90
2913;DHT22;1466;48.778;9.166;2023-02-20T00:09:57;11.40;99.90
2913;DHT22;1466;48.778;9.166;2023-02-20T00:12:23;11.40;99.90
2913;DHT22;1466;48.778;9.166;2023-02-20T00:14:48;11.40;99.90
2913;DHT22;1466;48.778;9.166;2023-02-20T00:17:14;11.40;99.90
2913;DHT22;1466;48.778;9.166;2023-02-20T00:19:40;11.40;99.90
2913;DHT22;1466;48.778;9.166;2023-02-20T00:22:05;11.40;99.90
2913;DHT22;1466;48.778;9.166;2023-02-20T00:24:31;11.40;99.90
2913;DHT22;1466;48.778;9.166;2023-02-20T00:26:56;11.40;99.90
2913;DHT22;1466;48.778;9.166;2023-02-20T00:29:23;11.40;99.90
2913;DHT22;1466;48.778;9.166;2023-02-20T00:31:53;11.40;99.90
2913;DHT22;1466;48.778;9.166;2023-02-20T00:34:20;11.40;99.90
2913;DHT22;1466;48.778;9.166;2023-02-20T00:36:46;11.40;99.90
2913;DHT22;1466;48.778;9.166;2023-02-20T00:39:12;11.40;99.90
2913;DHT22;1466;48.778;9.166;2023-02-20T00:41:39;11.30;99.90
2913;DHT22;1466;48.778;9.166;2023-02-20T00:44:04;11.40;99.90
2913;DHT22;1466;48.778;9.166;2023-02-20T00:46:30;11.40;99.90
2913;DHT22;1466;48.778;9.166;2023-02-20T00:48:57;11.40;99.90
2913;DHT22;1466;48.778;9.166;2023-02-20T00:51:23;11.30;99.90
2913;DHT22;1466;48.778;9.166;2023-02-20T00:53:48;11.30;99.90
2913;DHT22;1466;48.778;9.166;2023-02-20T00:56:14;11.30;99.90
2913;DHT22;1466;48.778;9.166;2023-02-20T00:58:39;11.30;99.90
2913;DHT22;1466;48.778;9.166;2023-02-20T01:01:06;11.30;99.90
2913;DHT22;1466;48.778;9.166;2023-02-20T01:03:31;11.30;99.90
2913;DHT22;1466;48.778;9.166;2023-02-20T01:05:57;11.20;99.90
2913;DHT22;1466;48.778;9.166;2023-02-20T01:08:23;11.10;99.90
2913;DHT22;1466;48.778;9.166;2023-02-20T01:10:49;11.10;99.90
2913;DHT22;1466;48.778;9.166;2023-02-20T01:13:14;11.00;99.90
2913;DHT22;1466;48.778;9.166;2023-02-20T01:15:40;11.00;99.90
2913;DHT22;1466;48.778;9.166;2023-02-20T01:18:06;10.90;99.90
2913;DHT22;1466;48.778;9.166;2023-02-20T01:20:32;10.90;99.90
2913;DHT22;1466;48.778;9.166;2023-02-20T01:22:57;10.90;99.90
2913;DHT22;1466;48.778;9.166;2023-02-20T01:25:23;10.90;99.90
2913;DHT22;1466;48.778;9.166;2023-02-20T01:27:49;10.90;99.90
2913;DHT22;1466;48.778;9.166;2023-02-20T01:30:15;10.80;99.90
2913;DHT22;1466;48.778;9.166;2023-02-20T01:32:40;10.80;99.90
2913;DHT22;1466;48.778;9.166;2023-02-20T01:35:07;10.80;99.90
2913;DHT22;1466;48.778;9.166;2023-02-20T01:37:32;10.70;99.90
2913;DHT22;1466;48.778;9.166;2023-02-20T01:39:58;10.70;99.90
2913;DHT22;1466;48.778;9.166;2023-02-20T01:42:25;10.60;99.90
2913;DHT22;1466;48.778;9.166;2023-02-20T01:44:52;10.60;99.90
2913;DHT22;1466;48.778;9.166;2023-02-20T01:47:20;10.60;99.90
2913;DHT22;1466;48.778;9.166;2023-02-20T01:49:53;10.60;99.90
2913;DHT22;1466;48.778;9.166;2023-02-20T01:54:59;10.60;99.90
2913;DHT22;1466;48.778;9.166;2023-02-20T01:57:29;10.60;99.90
2913;DHT22;1466;48.778;9.166;2023-02-20T02:00:02;10.60;99.90
2913;DHT22;1466;48.778;9.166;2023-02-20T02:02:32;10.50;99.90
2913;DHT22;1466;48.778;9.166;2023-02-20T02:04:59;10.50;99.90
2913;DHT22;1466;48.778;9.166;2023-02-20T02:07:25;10.50;99.90
2913;DHT22;1466;48.778;9.166;2023-02-20T02:09:57;10.50;99.90
2913;DHT22;1466;48.778;9.166;2023-02-20T02:12:24;10.50;99.90
2913;DHT22;1466;48.778;9.166;2023-02-20T02:14:50;10.50;99.90
2913;DHT22;1466;48.778;9.166;2023-02-20T02:20:18;10.60;99.90
2913;DHT22;1466;48.778;9.166;2023-02-20T02:28:18;10.70;99.90
2913;DHT22;1466;48.778;9.166;2023-02-20T02:44:43;10.80;99.90
2913;DHT22;1466;48.778;9.166;2023-02-20T02:47:26;10.70;99.90
2913;DHT22;1466;48.778;9.166;2023-02-20T02:52:23;10.70;99.90
2913;DHT22;1466;48.778;9.166;2023-02-20T02:55:24;10.80;99.90
2913;DHT22;1466;48.778;9.166;2023-02-20T02:57:50;10.80;99.90
2913;DHT22;1466;48.778;9.166;2023-02-20T03:00:26;10.80;99.90
2913;DHT22;1466;48.778;9.166;2023-02-20T03:08:30;10.90;99.90
2913;DHT22;1466;48.778;9.166;2023-02-20T03:11:13;10.90;99.90
2913;DHT22;1466;48.778;9.166;2023-02-20T03:13:43;10.90;99.90
2913;DHT22;1466;48.778;9.166;2023-02-20T03:16:50;10.90;99.90
2913;DHT22;1466;48.778;9.166;2023-02-20T03:25:00;10.90;99.90
2913;DHT22;1466;48.778;9.166;2023-02-20T03:27:48;11.00;99.90
2913;DHT22;1466;48.778;9.166;2023-02-20T03:30:24;11.00;99.90
2913;DHT22;1466;48.778;9.166;2023-02-20T03:32:57;11.00;99.90
2913;DHT22;1466;48.778;9.166;2023-02-20T03:35:43;10.90;99.90
2913;DHT22;1466;48.778;9.166;2023-02-20T03:38:31;10.90;99.90
2913;DHT22;1466;48.778;9.166;2023-02-20T03:41:17;10.90;99.90
2913;DHT22;1466;48.778;9.166;2023-02-20T03:44:03;10.90;99.90
2913;DHT22;1466;48.778;9.166;2023-02-20T03:46:31;10.90;99.90
2913;DHT22;1466;48.778;9.166;2023-02-20T03:49:01;10.90;99.90
2913;DHT22;1466;48.778;9.166;2023-02-20T03:51:28;10.90;99.90
2913;DHT22;1466;48.778;9.166;2023-02-20T03:53:53;10.80;99.90
2913;DHT22;1466;48.778;9.166;2023-02-20T03:56:31;10.90;99.90
2913;DHT22;1466;48.778;9.166;2023-02-20T04:01:38;10.90;99.90
2913;DHT22;1466;48.778;9.166;2023-02-20T04:04:06;10.90;99.90
2913;DHT22;1466;48.778;9.166;2023-02-20T04:06:35;10.80;99.90
2913;DHT22;1466;48.778;9.166;2023-02-20T04:09:05;10.90;99.90
2913;DHT22;1466;48.778;9.166;2023-02-20T04:11:35;10.80;99.90
2913;DHT22;1466;48.778;9.166;2023-02-20T04:14:02;10.80;99.90
2913;DHT22;1466;48.778;9.166;2023-02-20T04:16:28;10.70;99.90
2913;DHT22;1466;48.778;9.166;2023-02-20T04:18:54;10.70;99.90
2913;DHT22;1466;48.778;9.166;2023-02-20T04:21:38;10.70;99.90
2913;DHT22;1466;48.778;9.166;2023-02-20T04:24:08;10.70;99.90
2913;DHT22;1466;48.778;9.166;2023-02-20T04:26:35;10.70;99.90
2913;DHT22;1466;48.778;9.166;2023-02-20T04:29:02;10.70;99.90
2913;DHT22;1466;48.778;9.166;2023-02-20T04:31:28;10.80;99.90
2913;DHT22;1466;48.778;9.166;2023-02-20T04:33:54;10.80;99.90
2913;DHT22;1466;48.778;9.166;2023-02-20T04:36:20;10.80;99.90
2913;DHT22;1466;48.778;9.166;2023-02-20T04:38:45;10.70;99.90
2913;DHT22;1466;48.778;9.166;2023-02-20T04:41:11;10.60;99.90
2913;DHT22;1466;48.778;9.166;2023-02-20T04:43:36;10.60;99.90
2913;DHT22;1466;48.778;9.166;2023-02-20T04:46:02;10.60;99.90
2913;DHT22;1466;48.778;9.166;2023-02-20T04:48:28;10.50;99.90
2913;DHT22;1466;48.778;9.166;2023-02-20T04:50:54;10.50;99.90
2913;DHT22;1466;48.778;9.166;2023-02-20T04:53:19;10.50;99.90
2913;DHT22;1466;48.778;9.166;2023-02-20T04:55:45;10.50;99.90
2913;DHT22;1466;48.778;9.166;2023-02-20T04:58:10;10.40;99.90
2913;DHT22;1466;48.778;9.166;2023-02-20T05:00:36;10.30;99.90
2913;DHT22;1466;48.778;9.166;2023-02-20T05:03:02;10.20;99.90
2913;DHT22;1466;48.778;9.166;2023-02-20T05:05:28;10.20;99.90
2913;DHT22;1466;48.778;9.166;2023-02-20T05:07:55;10.20;99.90
2913;DHT22;1466;48.778;9.166;2023-02-20T05:10:22;10.20;99.90
2913;DHT22;1466;48.778;9.166;2023-02-20T05:12:48;10.20;99.90
2913;DHT22;1466;48.778;9.166;2023-02-20T05:15:14;10.20;99.90
2913;DHT22;1466;48.778;9.166;2023-02-20T05:17:40;10.10;99.90
2913;DHT22;1466;48.778;9.166;2023-02-20T05:20:06;10.00;99.90
2913;DHT22;1466;48.778;9.166;2023-02-20T05:22:32;10.00;99.90
2913;DHT22;1466;48.778;9.166;2023-02-20T05:24:57;10.10;99.90
2913;DHT22;1466;48.778;9.166;2023-02-20T05:27:24;10.10;99.90
2913;DHT22;1466;48.778;9.166;2023-02-20T05:29:52;10.10;99.90
2913;DHT22;1466;48.778;9.166;2023-02-20T05:32:20;10.10;99.90
2913;DHT22;1466;48.778;9.166;2023-02-20T05:34:45;10.10;99.90
2913;DHT22;1466;48.778;9.166;2023-02-20T05:37:13;10.10;99.90
2913;DHT22;1466;48.778;9.166;2023-02-20T05:39:39;10.10;99.90
2913;DHT22;1466;48.778;9.166;2023-02-20T05:42:05;10.10;99.90
2913;DHT22;1466;48.778;9.166;2023-02-20T05:44:31;10.10;99.90
2913;DHT22;1466;48.778;9.166;2023-02-20T05:46:57;10.00;99.90
2913;DHT22;1466;48.778;9.166;2023-02-20T05:49:22;10.00;99.90
2913;DHT22;1466;48.778;9.166;2023-02-20T05:51:48;9.90;99.90
2913;DHT22;1466;48.778;9.166;2023-02-20T05:54:16;9.90;99.90
2913;DHT22;1466;48.778;9.166;2023-02-20T05:56:42;9.80;99.90
2913;DHT22;1466;48.778;9.166;2023-02-20T05:59:08;9.80;99.90
2913;DHT22;1466;48.778;9.166;2023-02-20T06:01:34;9.80;99.90
2913;DHT22;1466;48.778;9.166;2023-02-20T06:04:00;9.70;99.90
2913;DHT22;1466;48.778;9.166;2023-02-20T06:06:34;9.70;99.90
2913;DHT22;1466;48.778;9.166;2023-02-20T06:09:01;9.60;99.90
2913;DHT22;1466;48.778;9.166;2023-02-20T06:11:27;9.60;99.90
2913;DHT22;1466;48.778;9.166;2023-02-20T06:13:53;9.60;99.90
2913;DHT22;1466;48.778;9.166;2023-02-20T06:16:26;9.60;99.90
2913;DHT22;1466;48.778;9.166;2023-02-20T06:18:53;9.60;99.90
2913;DHT22;1466;48.778;9.166;2023-02-20T06:21:20;9.60;99.90
2913;DHT22;1466;48.778;9.166;2023-02-20T06:23:48;9.60;99.90
2913;DHT22;1466;48.778;9.166;2023-02-20T06:26:15;9.50;99.90
2913;DHT22;1466;48.778;9.166;2023-02-20T06:28:41;9.50;99.90
2913;DHT22;1466;48.778;9.166;2023-02-20T06:31:08;9.50;99.90
2913;DHT22;1466;48.778;9.166;2023-02-20T06:33:34;9.50;99.90
2913;DHT22;1466;48.778;9.166;2023-02-20T06:36:00;9.50;99.90
2913;DHT22;1466;48.778;9.166;2023-02-20T06:38:27;9.60;99.90
2913;DHT22;1466;48.778;9.166;2023-02-20T06:40:53;9.70;99.90
2913;DHT22;1466;48.778;9.166;2023-02-20T06:43:18;9.70;99.90
2913;DHT22;1466;48.778;9.166;2023-02-20T06:45:44;9.70;99.90
2913;DHT22;1466;48.778;9.166;2023-02-20T06:48:10;9.70;99.90
2913;DHT22;1466;48.778;9.166;2023-02-20T06:50:36;9.70;99.90
2913;DHT22;1466;48.778;9.166;2023-02-20T06:53:01;9.70;99.90
2913;DHT22;1466;48.778;9.166;2023-02-20T06:55:27;9.70;99.90
2913;DHT22;1466;48.778;9.166;2023-02-20T06:57:53;9.70;99.90
2913;DHT22;1466;48.778;9.166;2023-02-20T07:00:18;9.70;99.90
2913;DHT22;1466;48.778;9.166;2023-02-20T07:02:44;9.80;99.90
2913;DHT22;1466;48.778;9.166;2023-02-20T07:05:11;9.70;99.90
2913;DHT22;1466;48.778;9.166;2023-02-20T07:07:37;9.80;99.90
2913;DHT22;1466;48.778;9.166;2023-02-20T07:10:03;9.80;99.90
2913;DHT22;1466;48.778;9.166;2023-02-20T07:12:31;9.80;99.90
2913;DHT22;1466;48.778;9.166;2023-02-20T07:14:57;9.80;99.90
2913;DHT22;1466;48.778;9.166;2023-02-20T07:17:23;9.90;99.90
2913;DHT22;1466;48.778;9.166;2023-02-20T07:19:49;9.80;99.90
2913;DHT22;1466;48.778;9.166;2023-02-20T07:22:15;9.80;99.90
2913;DHT22;1466;48.778;9.166;2023-02-20T07:24:40;9.80;99.90
2913;DHT22;1466;48.778;9.166;2023-02-20T07:27:07;9.80;99.90
2913;DHT22;1466;48.778;9.166;2023-02-20T07:29:35;9.90;99.90
2913;DHT22;1466;48.778;9.166;2023-02-20T07:32:01;9.90;99.90
2913;DHT22;1466;48.778;9.166;2023-02-20T07:34:27;9.90;99.90
2913;DHT22;1466;48.778;9.166;2023-02-20T07:36:52;9.90;99.90
2913;DHT22;1466;48.778;9.166;2023-02-20T07:39:18;9.90;99.90
2913;DHT22;1466;48.778;9.166;2023-02-20T07:41:43;10.00;99.90
2913;DHT22;1466;48.778;9.166;2023-02-20T07:44:09;10.10;99.90
2913;DHT22;1466;48.778;9.166;2023-02-20T07:46:37;10.10;99.90
2913;DHT22;1466;48.778;9.166;2023-02-20T07:49:04;10.10;99.90
2913;DHT22;1466;48.778;9.166;2023-02-20T07:51:30;10.10;99.90
2913;DHT22;1466;48.778;9.166;2023-02-20T07:53:55;10.20;99.90
2913;DHT22;1466;48.778;9.166;2023-02-20T07:56:22;10.20;99.90
2913;DHT22;1466;48.778;9.166;2023-02-20T07:58:48;10.30;99.90
2913;DHT22;1466;48.778;9.166;2023-02-20T08:01:14;10.30;99.90
2913;DHT22;1466;48.778;9.166;2023-02-20T08:03:39;10.30;99.90
2913;DHT22;1466;48.778;9.166;2023-02-20T08:06:05;10.30;99.90
2913;DHT22;1466;48.778;9.166;2023-02-20T08:08:31;10.40;99.90
2913;DHT22;1466;48.778;9.166;2023-02-20T08:10:57;10.50;99.90
2913;DHT22;1466;48.778;9.166;2023-02-20T08:13:22;10.50;99.90
2913;DHT22;1466;48.778;9.166;2023-02-20T08:15:48;10.60;99.90
2913;DHT22;1466;48.778;9.166;2023-02-20T08:18:14;10.60;99.90
2913;DHT22;1466;48.778;9.166;2023-02-20T08:20:40;10.70;99.90
2913;DHT22;1466;48.778;9.166;2023-02-20T08:23:19;10.80;99.90
2913;DHT22;1466;48.778;9.166;2023-02-20T08:25:45;10.80;99.90
2913;DHT22;1466;48.778;9.166;2023-02-20T08:28:12;10.90;99.90
2913;DHT22;1466;48.778;9.166;2023-02-20T08:30:37;10.90;99.90
2913;DHT22;1466;48.778;9.166;2023-02-20T08:33:03;11.00;99.90
2913;DHT22;1466;48.778;9.166;2023-02-20T08:35:31;11.00;99.90
2913;DHT22;1466;48.778;9.166;2023-02-20T08:38:06;11.10;99.90
2913;DHT22;1466;48.778;9.166;2023-02-20T08:40:32;11.20;99.80
2913;DHT22;1466;48.778;9.166;2023-02-20T08:42:58;11.30;99.70
2913;DHT22;1466;48.778;9.166;2023-02-20T08:45:24;11.40;99.60
2913;DHT22;1466;48.778;9.166;2023-02-20T08:47:50;11.40;99.50
2913;DHT22;1466;48.778;9.166;2023-02-20T08:50:17;11.50;99.40
2913;DHT22;1466;48.778;9.166;2023-02-20T08:52:44;11.60;99.30
2913;DHT22;1466;48.778;9.166;2023-02-20T08:55:10;11.80;99.30
2913;DHT22;1466;48.778;9.166;2023-02-20T08:57:36;12.20;98.90
2913;DHT22;1466;48.778;9.166;2023-02-20T09:00:05;12.70;98.30
2913;DHT22;1466;48.778;9.166;2023-02-20T09:02:30;13.20;97.40
2913;DHT22;1466;48.778;9.166;2023-02-20T09:04:56;13.50;96.80
2913;DHT22;1466;48.778;9.166;2023-02-20T09:07:22;13.90;96.70
2913;DHT22;1466;48.778;9.166;2023-02-20T09:09:48;14.20;95.80
2913;DHT22;1466;48.778;9.166;2023-02-20T09:12:15;14.30;95.30
2913;DHT22;1466;48.778;9.166;2023-02-20T09:14:41;14.40;94.60
2913;DHT22;1466;48.778;9.166;2023-02-20T09:17:07;14.50;94.20
2913;DHT22;1466;48.778;9.166;2023-02-20T09:19:33;14.50;93.70
2913;DHT22;1466;48.778;9.166;2023-02-20T09:21:59;14.50;93.50
2913;DHT22;1466;48.778;9.166;2023-02-20T09:24:24;14.50;93.70
2913;DHT22;1466;48.778;9.166;2023-02-20T09:26:56;14.50;93.50
2913;DHT22;1466;48.778;9.166;2023-02-20T09:29:22;14.50;93.70
2913;DHT22;1466;48.778;9.166;2023-02-20T09:31:47;14.70;93.70
2913;DHT22;1466;48.778;9.166;2023-02-20T09:34:13;14.80;93.00
2913;DHT22;1466;48.778;9.166;2023-02-20T09:36:38;14.80;92.90
2913;DHT22;1466;48.778;9.166;2023-02-20T09:39:04;14.70;92.80
2913;DHT22;1466;48.778;9.166;2023-02-20T09:44:21;14.80;92.60
2913;DHT22;1466;48.778;9.166;2023-02-20T09:46:51;14.80;92.20
2913;DHT22;1466;48.778;9.166;2023-02-20T09:49:22;14.80;92.30
2913;DHT22;1466;48.778;9.166;2023-02-20T09:51:56;14.90;92.40
2913;DHT22;1466;48.778;9.166;2023-02-20T09:54:26;15.00;92.20
2913;DHT22;1466;48.778;9.166;2023-02-20T09:56:56;14.90;92.20
2913;DHT22;1466;48.778;9.166;2023-02-20T10:04:26;14.50;92.30
2913;DHT22;1466;48.778;9.166;2023-02-20T10:06:55;14.50;92.50
2913;DHT22;1466;48.778;9.166;2023-02-20T10:09:22;14.30;92.30
2913;DHT22;1466;48.778;9.166;2023-02-20T10:26:21;14.10;92.70
2913;DHT22;1466;48.778;9.166;2023-02-20T10:28:49;14.00;92.70
2913;DHT22;1466;48.778;9.166;2023-02-20T10:37:00;14.20;92.60
2913;DHT22;1466;48.778;9.166;2023-02-20T10:39:27;14.20;92.50
2913;DHT22;1466;48.778;9.166;2023-02-20T10:41:59;14.20;92.40
2913;DHT22;1466;48.778;9.166;2023-02-20T10:47:48;14.60;92.40
2913;DHT22;1466;48.778;9.166;2023-02-20T10:50:19;14.90;92.40
2913;DHT22;1466;48.778;9.166;2023-02-20T10:52:56;15.20;92.20
2913;DHT22;1466;48.778;9.166;2023-02-20T10:58:12;15.60;91.50
2913;DHT22;1466;48.778;9.166;2023-02-20T11:00:50;15.70;91.50
2913;DHT22;1466;48.778;9.166;2023-02-20T11:05:58;16.00;90.70
2913;DHT22;1466;48.778;9.166;2023-02-20T11:08:26;16.00;90.40
2913;DHT22;1466;48.778;9.166;2023-02-20T11:10:55;16.00;90.30
2913;DHT22;1466;48.778;9.166;2023-02-20T11:13:23;16.00;90.00
2913;DHT22;1466;48.778;9.166;2023-02-20T11:15:54;16.00;89.80
2913;DHT22;1466;48.778;9.166;2023-02-20T11:18:39;16.00;89.20
2913;DHT22;1466;48.778;9.166;2023-02-20T11:21:04;15.80;88.70
2913;DHT22;1466;48.778;9.166;2023-02-20T11:23:43;15.70;89.60
2913;DHT22;1466;48.778;9.166;2023-02-20T11:26:29;15.70;89.70
2913;DHT22;1466;48.778;9.166;2023-02-20T11:31:27;15.80;89.40
2913;DHT22;1466;48.778;9.166;2023-02-20T11:33:54;15.80;88.80
2913;DHT22;1466;48.778;9.166;2023-02-20T11:36:26;15.80;88.80
2913;DHT22;1466;48.778;9.166;2023-02-20T11:39:03;15.70;88.70
2913;DHT22;1466;48.778;9.166;2023-02-20T11:41:38;15.70;89.00
2913;DHT22;1466;48.778;9.166;2023-02-20T11:46:36;15.70;89.00
2913;DHT22;1466;48.778;9.166;2023-02-20T11:49:07;15.70;88.90
2913;DHT22;1466;48.778;9.166;2023-02-20T11:51:43;15.70;88.80
2913;DHT22;1466;48.778;9.166;2023-02-20T11:54:22;15.70;88.90
2913;DHT22;1466;48.778;9.166;2023-02-20T11:59:42;15.60;88.80
2913;DHT22;1466;48.778;9.166;2023-02-20T12:09:52;15.50;89.10
2913;DHT22;1466;48.778;9.166;2023-02-20T12:12:19;15.60;89.20
2913;DHT22;1466;48.778;9.166;2023-02-20T12:14:49;15.60;89.00
2913;DHT22;1466;48.778;9.166;2023-02-20T12:17:20;15.80;89.00
2913;DHT22;1466;48.778;9.166;2023-02-20T12:22:29;16.00;89.10
2913;DHT22;1466;48.778;9.166;2023-02-20T12:39:12;16.10;86.70
2913;DHT22;1466;48.778;9.166;2023-02-20T12:42:25;16.00;85.60
2913;DHT22;1466;48.778;9.166;2023-02-20T12:45:15;16.10;85.50
2913;DHT22;1466;48.778;9.166;2023-02-20T12:47:43;16.00;85.60
2913;DHT22;1466;48.778;9.166;2023-02-20T12:55:39;16.20;85.50
2913;DHT22;1466;48.778;9.166;2023-02-20T13:01:34;16.20;84.50
2913;DHT22;1466;48.778;9.166;2023-02-20T13:04:05;16.30;84.50
2913;DHT22;1466;48.778;9.166;2023-02-20T13:09:21;16.50;83.80
2913;DHT22;1466;48.778;9.166;2023-02-20T13:11:50;16.60;83.20
2913;DHT22;1466;48.778;9.166;2023-02-20T13:17:17;16.80;81.60
2913;DHT22;1466;48.778;9.166;2023-02-20T13:22:35;16.90;80.40
2913;DHT22;1466;48.778;9.166;2023-02-20T13:30:37;17.00;79.30
2913;DHT22;1466;48.778;9.166;2023-02-20T13:33:21;17.10;78.10
2913;DHT22;1466;48.778;9.166;2023-02-20T13:35:53;17.20;77.30
2913;DHT22;1466;48.778;9.166;2023-02-20T13:38:21;17.10;77.00
2913;DHT22;1466;48.778;9.166;2023-02-20T13:43:29;17.10;77.30
2913;DHT22;1466;48.778;9.166;2023-02-20T13:59:11;17.30;69.70
2913;DHT22;1466;48.778;9.166;2023-02-20T14:04:21;17.40;69.10
2913;DHT22;1466;48.778;9.166;2023-02-20T14:06:51;17.40;68.50
2913;DHT22;1466;48.778;9.166;2023-02-20T14:09:23;17.40;68.30
2913;DHT22;1466;48.778;9.166;2023-02-20T14:11:53;17.50;65.60
2913;DHT22;1466;48.778;9.166;2023-02-20T14:14:39;17.40;64.50
2913;DHT22;1466;48.778;9.166;2023-02-20T14:17:10;17.40;64.40
2913;DHT22;1466;48.778;9.166;2023-02-20T14:19:42;17.40;62.10
2913;DHT22;1466;48.778;9.166;2023-02-20T14:22:26;17.40;59.60
2913;DHT22;1466;48.778;9.166;2023-02-20T14:27:29;17.30;59.40
2913;DHT22;1466;48.778;9.166;2023-02-20T14:30:27;17.30;59.70
2913;DHT22;1466;48.778;9.166;2023-02-20T14:32:56;17.40;60.10
2913;DHT22;1466;48.778;9.166;2023-02-20T14:35:41;17.50;60.40
2913;DHT22;1466;48.778;9.166;2023-02-20T14:40:43;17.50;59.60
2913;DHT22;1466;48.778;9.166;2023-02-20T14:43:15;17.40;59.20
2913;DHT22;1466;48.778;9.166;2023-02-20T14:45:43;17.40;58.90
2913;DHT22;1466;48.778;9.166;2023-02-20T14:48:25;17.20;59.00
2913;DHT22;1466;48.778;9.166;2023-02-20T14:51:14;17.20;59.00
2913;DHT22;1466;48.778;9.166;2023-02-20T14:53:42;17.20;59.40
2913;DHT22;1466;48.778;9.166;2023-02-20T14:56:09;17.30;59.60
2913;DHT22;1466;48.778;9.166;2023-02-20T14:58:35;17.30;59.40
2913;DHT22;1466;48.778;9.166;2023-02-20T15:04:02;17.30;59.60
2913;DHT22;1466;48.778;9.166;2023-02-20T15:06:29;17.30;59.50
2913;DHT22;1466;48.778;9.166;2023-02-20T15:08:59;17.40;59.40
2913;DHT22;1466;48.778;9.166;2023-02-20T15:11:26;17.40;59.50
2913;DHT22;1466;48.778;9.166;2023-02-20T15:13:52;17.50;59.20
2913;DHT22;1466;48.778;9.166;2023-02-20T15:16:25;17.50;59.10
2913;DHT22;1466;48.778;9.166;2023-02-20T15:18:51;17.70;58.80
2913;DHT22;1466;48.778;9.166;2023-02-20T15:21:35;17.90;58.80
2913;DHT22;1466;48.778;9.166;2023-02-20T15:26:51;17.40;59.70
2913;DHT22;1466;48.778;9.166;2023-02-20T15:31:43;17.10;59.90
2913;DHT22;1466;48.778;9.166;2023-02-20T15:34:27;17.10;60.20
2913;DHT22;1466;48.778;9.166;2023-02-20T15:36:54;17.00;59.40
2913;DHT22;1466;48.778;9.166;2023-02-20T15:39:20;16.90;59.00
2913;DHT22;1466;48.778;9.166;2023-02-20T15:41:47;16.80;59.00
2913;DHT22;1466;48.778;9.166;2023-02-20T15:44:13;16.70;58.90
2913;DHT22;1466;48.778;9.166;2023-02-20T15:46:39;16.70;58.90
2913;DHT22;1466;48.778;9.166;2023-02-20T15:49:05;16.60;59.20
2913;DHT22;1466;48.778;9.166;2023-02-20T15:51:34;16.50;59.30
2913;DHT22;1466;48.778;9.166;2023-02-20T15:54:01;16.50;59.60
2913;DHT22;1466;48.778;9.166;2023-02-20T15:56:32;16.50;59.10
2913;DHT22;1466;48.778;9.166;2023-02-20T15:59:05;16.40;59.20
2913;DHT22;1466;48.778;9.166;2023-02-20T16:01:31;16.30;59.20
2913;DHT22;1466;48.778;9.166;2023-02-20T16:03:56;16.30;59.40
2913;DHT22;1466;48.778;9.166;2023-02-20T16:06:22;16.20;59.40
2913;DHT22;1466;48.778;9.166;2023-02-20T16:08:49;16.20;59.30
2913;DHT22;1466;48.778;9.166;2023-02-20T16:11:15;16.10;59.60
2913;DHT22;1466;48.778;9.166;2023-02-20T16:13:42;16.00;59.70
2913;DHT22;1466;48.778;9.166;2023-02-20T16:16:22;16.00;60.00
2913;DHT22;1466;48.778;9.166;2023-02-20T16:18:50;16.00;60.00
2913;DHT22;1466;48.778;9.166;2023-02-20T16:21:19;15.90;60.20
2913;DHT22;1466;48.778;9.166;2023-02-20T16:23:45;15.90;60.60
2913;DHT22;1466;48.778;9.166;2023-02-20T16:26:17;15.90;60.90
2913;DHT22;1466;48.778;9.166;2023-02-20T16:28:47;15.80;60.90
2913;DHT22;1466;48.778;9.166;2023-02-20T16:31:16;15.80;61.20
2913;DHT22;1466;48.778;9.166;2023-02-20T16:33:41;15.70;61.40
2913;DHT22;1466;48.778;9.166;2023-02-20T16:36:07;15.80;61.60
2913;DHT22;1466;48.778;9.166;2023-02-20T16:38:33;15.70;61.60
2913;DHT22;1466;48.778;9.166;2023-02-20T16:40:59;15.70;61.70
2913;DHT22;1466;48.778;9.166;2023-02-20T16:43:28;15.60;61.80
2913;DHT22;1466;48.778;9.166;2023-02-20T16:45:53;15.60;62.00
2913;DHT22;1466;48.778;9.166;2023-02-20T16:48:20;15.50;61.90
2913;DHT22;1466;48.778;9.166;2023-02-20T16:50:50;15.50;62.20
2913;DHT22;1466;48.778;9.166;2023-02-20T16:53:17;15.50;62.40
2913;DHT22;1466;48.778;9.166;2023-02-20T16:55:43;15.50;62.60
2913;DHT22;1466;48.778;9.166;2023-02-20T16:58:11;15.50;62.60
2913;DHT22;1466;48.778;9.166;2023-02-20T17:00:39;15.40;62.60
2913;DHT22;1466;48.778;9.166;2023-02-20T17:03:06;15.30;62.90
2913;DHT22;1466;48.778;9.166;2023-02-20T17:05:33;15.30;63.30
2913;DHT22;1466;48.778;9.166;2023-02-20T17:08:00;15.20;63.70
2913;DHT22;1466;48.778;9.166;2023-02-20T17:10:27;15.20;63.90
2913;DHT22;1466;48.778;9.166;2023-02-20T17:12:54;15.10;64.20
2913;DHT22;1466;48.778;9.166;2023-02-20T17:15:22;15.00;64.60
2913;DHT22;1466;48.778;9.166;2023-02-20T17:17:48;15.00;65.20
2913;DHT22;1466;48.778;9.166;2023-02-20T17:20:24;14.90;65.80
2913;DHT22;1466;48.778;9.166;2023-02-20T17:22:52;14.90;66.30
2913;DHT22;1466;48.778;9.166;2023-02-20T17:25:19;14.80;66.80
2913;DHT22;1466;48.778;9.166;2023-02-20T17:27:46;14.60;67.00
2913;DHT22;1466;48.778;9.166;2023-02-20T17:30:13;14.60;67.40
2913;DHT22;1466;48.778;9.166;2023-02-20T17:32:38;14.50;67.60
2913;DHT22;1466;48.778;9.166;2023-02-20T17:35:06;14.50;67.90
2913;DHT22;1466;48.778;9.166;2023-02-20T17:37:32;14.50;68.20
2913;DHT22;1466;48.778;9.166;2023-02-20T17:39:59;14.50;68.30
2913;DHT22;1466;48.778;9.166;2023-02-20T17:42:25;14.40;68.50
2913;DHT22;1466;48.778;9.166;2023-02-20T17:44:51;14.40;68.70
2913;DHT22;1466;48.778;9.166;2023-02-20T17:47:18;14.30;68.80
2913;DHT22;1466;48.778;9.166;2023-02-20T17:49:46;14.30;69.10
2913;DHT22;1466;48.778;9.166;2023-02-20T17:52:15;14.30;69.30
2913;DHT22;1466;48.778;9.166;2023-02-20T17:54:44;14.20;69.50
2913;DHT22;1466;48.778;9.166;2023-02-20T17:57:11;14.10;69.70
2913;DHT22;1466;48.778;9.166;2023-02-20T17:59:38;14.00;70.00
2913;DHT22;1466;48.778;9.166;2023-02-20T18:02:04;13.90;70.10
2913;DHT22;1466;48.778;9.166;2023-02-20T18:04:30;13.90;70.40
2913;DHT22;1466;48.778;9.166;2023-02-20T18:06:55;13.80;70.70
2913;DHT22;1466;48.778;9.166;2023-02-20T18:09:21;13.70;70.70
2913;DHT22;1466;48.778;9.166;2023-02-20T18:11:47;13.70;70.60
2913;DHT22;1466;48.778;9.166;2023-02-20T18:14:13;13.60;70.40
2913;DHT22;1466;48.778;9.166;2023-02-20T18:16:39;13.60;70.50
2913;DHT22;1466;48.778;9.166;2023-02-20T18:19:06;13.50;70.50
2913;DHT22;1466;48.778;9.166;2023-02-20T18:21:36;13.50;70.70
2913;DHT22;1466;48.778;9.166;2023-02-20T18:24:03;13.40;70.60
2913;DHT22;1466;48.778;9.166;2023-02-20T18:26:31;13.40;70.60
2913;DHT22;1466;48.778;9.166;2023-02-20T18:28:57;13.40;70.60
2913;DHT22;1466;48.778;9.166;2023-02-20T18:31:23;13.30;70.50
2913;DHT22;1466;48.778;9.166;2023-02-20T18:33:49;13.20;70.40
2913;DHT22;1466;48.778;9.166;2023-02-20T18:36:15;13.20;70.70
2913;DHT22;1466;48.778;9.166;2023-02-20T18:38:41;13.20;70.90
2913;DHT22;1466;48.778;9.166;2023-02-20T18:41:11;13.20;71.10
2913;DHT22;1466;48.778;9.166;2023-02-20T18:43:44;13.20;70.90
2913;DHT22;1466;48.778;9.166;2023-02-20T18:46:10;13.20;71.10
2913;DHT22;1466;48.778;9.166;2023-02-20T18:48:36;13.20;71.30
2913;DHT22;1466;48.778;9.166;2023-02-20T18:51:01;13.10;71.50
2913;DHT22;1466;48.778;9.166;2023-02-20T18:53:27;13.20;71.80
2913;DHT22;1466;48.778;9.166;2023-02-20T18:55:52;13.20;71.70
2913;DHT22;1466;48.778;9.166;2023-02-20T18:58:18;13.20;71.80